Inarajan, Guam
Current Conditions -  °F | °C
As of 1:54 PM on Friday 19 Dec 2014 (Local Time) from PGUM Reporting Station
Broken Clouds Broken Clouds  
Wind Chill: 83°   Ceiling: 5500
Heat Index: 93°   Visibility: 10mi
Dew Point: 78°   Wind: 20mph
Humidity: 85%   Direction: 50°NE
Pressure: 29.9"   Gusts: 25mph
Location:  13.28°N, 144.74°E
Report Text: PGUM 190354Z 05017G22KT 10SM FEW026 SCT033 BKN055 28/26 A2990 RMK AO2 PK WND 07032/0312 RAB11E28 SLP118 P0002 T02830256
Loading
Personal Weather Stations






























Interactive Weather Map New forecast layout! Learn more

10-Day Weather Forecast

Advertisements
Track Severe Weather on mobile